sensor_id;sensor_type;location;lat;lon;timestamp;P1;durP1;ratioP1;P2;durP2;ratioP2
8526;SDS011;4301;48.362;8.478;2023-06-14T00:00:17;6.23;;;4.33;;
8526;SDS011;4301;48.362;8.478;2023-06-14T00:02:45;4.73;;;4.33;;
8526;SDS011;4301;48.362;8.478;2023-06-14T00:05:12;4.83;;;4.43;;
8526;SDS011;4301;48.362;8.478;2023-06-14T00:07:41;4.90;;;4.40;;
8526;SDS011;4301;48.362;8.478;2023-06-14T00:10:08;7.10;;;4.70;;
8526;SDS011;4301;48.362;8.478;2023-06-14T00:12:37;4.83;;;4.43;;
8526;SDS011;4301;48.362;8.478;2023-06-14T00:15:05;5.00;;;4.50;;
8526;SDS011;4301;48.362;8.478;2023-06-14T00:17:34;5.53;;;4.20;;
8526;SDS011;4301;48.362;8.478;2023-06-14T00:20:02;5.70;;;5.03;;
8526;SDS011;4301;48.362;8.478;2023-06-14T00:22:32;4.90;;;4.40;;
8526;SDS011;4301;48.362;8.478;2023-06-14T00:25:00;5.17;;;4.67;;
8526;SDS011;4301;48.362;8.478;2023-06-14T00:27:27;4.90;;;4.50;;
8526;SDS011;4301;48.362;8.478;2023-06-14T00:29:54;4.87;;;4.47;;
8526;SDS011;4301;48.362;8.478;2023-06-14T00:32:22;5.23;;;4.73;;
8526;SDS011;4301;48.362;8.478;2023-06-14T00:34:50;4.93;;;4.50;;
8526;SDS011;4301;48.362;8.478;2023-06-14T00:37:17;5.17;;;4.57;;
8526;SDS011;4301;48.362;8.478;2023-06-14T00:39:44;5.80;;;5.20;;
8526;SDS011;4301;48.362;8.478;2023-06-14T00:42:12;5.37;;;4.83;;
8526;SDS011;4301;48.362;8.478;2023-06-14T00:44:49;5.40;;;4.60;;
8526;SDS011;4301;48.362;8.478;2023-06-14T00:47:16;5.80;;;5.00;;
8526;SDS011;4301;48.362;8.478;2023-06-14T00:49:44;4.90;;;4.50;;
8526;SDS011;4301;48.362;8.478;2023-06-14T00:52:11;4.80;;;4.40;;
8526;SDS011;4301;48.362;8.478;2023-06-14T00:54:39;5.10;;;4.70;;
8526;SDS011;4301;48.362;8.478;2023-06-14T00:57:06;7.00;;;4.70;;
8526;SDS011;4301;48.362;8.478;2023-06-14T00:59:35;5.47;;;4.60;;
8526;SDS011;4301;48.362;8.478;2023-06-14T01:02:08;4.77;;;4.37;;
8526;SDS011;4301;48.362;8.478;2023-06-14T01:04:35;4.67;;;4.27;;
8526;SDS011;4301;48.362;8.478;2023-06-14T01:07:04;7.30;;;4.30;;
8526;SDS011;4301;48.362;8.478;2023-06-14T01:09:42;5.30;;;4.80;;
8526;SDS011;4301;48.362;8.478;2023-06-14T01:12:17;5.90;;;4.43;;
8526;SDS011;4301;48.362;8.478;2023-06-14T01:14:52;5.30;;;4.80;;
8526;SDS011;4301;48.362;8.478;2023-06-14T01:17:21;4.97;;;4.53;;
8526;SDS011;4301;48.362;8.478;2023-06-14T01:19:52;6.17;;;4.90;;
8526;SDS011;4301;48.362;8.478;2023-06-14T01:22:23;5.10;;;4.63;;
8526;SDS011;4301;48.362;8.478;2023-06-14T01:24:53;4.97;;;4.47;;
8526;SDS011;4301;48.362;8.478;2023-06-14T01:27:21;5.37;;;4.60;;
8526;SDS011;4301;48.362;8.478;2023-06-14T01:29:53;5.13;;;4.63;;
8526;SDS011;4301;48.362;8.478;2023-06-14T01:32:23;5.60;;;4.97;;
8526;SDS011;4301;48.362;8.478;2023-06-14T01:34:50;6.90;;;5.30;;
8526;SDS011;4301;48.362;8.478;2023-06-14T01:37:17;5.13;;;4.70;;
8526;SDS011;4301;48.362;8.478;2023-06-14T01:39:45;5.70;;;4.73;;
8526;SDS011;4301;48.362;8.478;2023-06-14T01:42:16;5.50;;;5.00;;
8526;SDS011;4301;48.362;8.478;2023-06-14T01:44:44;5.70;;;4.97;;
8526;SDS011;4301;48.362;8.478;2023-06-14T01:47:12;6.70;;;4.60;;
8526;SDS011;4301;48.362;8.478;2023-06-14T01:49:40;4.93;;;4.53;;
8526;SDS011;4301;48.362;8.478;2023-06-14T01:52:07;8.20;;;4.70;;
8526;SDS011;4301;48.362;8.478;2023-06-14T01:54:35;4.87;;;4.37;;
8526;SDS011;4301;48.362;8.478;2023-06-14T01:57:06;5.30;;;4.80;;
8526;SDS011;4301;48.362;8.478;2023-06-14T01:59:35;5.30;;;4.80;;
8526;SDS011;4301;48.362;8.478;2023-06-14T02:02:02;6.07;;;4.80;;
8526;SDS011;4301;48.362;8.478;2023-06-14T02:04:30;9.07;;;4.90;;
8526;SDS011;4301;48.362;8.478;2023-06-14T02:06:57;4.77;;;4.37;;
8526;SDS011;4301;48.362;8.478;2023-06-14T02:09:23;5.17;;;4.67;;
8526;SDS011;4301;48.362;8.478;2023-06-14T02:11:50;6.17;;;4.80;;
8526;SDS011;4301;48.362;8.478;2023-06-14T02:14:17;5.27;;;4.77;;
8526;SDS011;4301;48.362;8.478;2023-06-14T02:16:46;7.70;;;4.73;;
8526;SDS011;4301;48.362;8.478;2023-06-14T02:19:14;5.47;;;4.97;;
8526;SDS011;4301;48.362;8.478;2023-06-14T02:21:41;5.77;;;4.93;;
8526;SDS011;4301;48.362;8.478;2023-06-14T02:24:08;5.33;;;4.70;;
8526;SDS011;4301;48.362;8.478;2023-06-14T02:26:35;5.50;;;4.73;;
8526;SDS011;4301;48.362;8.478;2023-06-14T02:29:03;6.83;;;5.07;;
8526;SDS011;4301;48.362;8.478;2023-06-14T02:31:30;5.10;;;4.43;;
8526;SDS011;4301;48.362;8.478;2023-06-14T02:33:58;9.20;;;5.40;;
8526;SDS011;4301;48.362;8.478;2023-06-14T02:36:25;5.70;;;5.10;;
8526;SDS011;4301;48.362;8.478;2023-06-14T02:38:54;5.30;;;4.77;;
8526;SDS011;4301;48.362;8.478;2023-06-14T02:41:22;7.83;;;5.57;;
8526;SDS011;4301;48.362;8.478;2023-06-14T02:43:49;8.20;;;5.03;;
8526;SDS011;4301;48.362;8.478;2023-06-14T02:46:16;6.27;;;5.20;;
8526;SDS011;4301;48.362;8.478;2023-06-14T02:48:43;7.43;;;5.03;;
8526;SDS011;4301;48.362;8.478;2023-06-14T02:51:11;5.30;;;4.80;;
8526;SDS011;4301;48.362;8.478;2023-06-14T02:53:38;6.80;;;5.50;;
8526;SDS011;4301;48.362;8.478;2023-06-14T02:56:05;5.87;;;4.87;;
8526;SDS011;4301;48.362;8.478;2023-06-14T02:58:32;5.70;;;5.20;;
8526;SDS011;4301;48.362;8.478;2023-06-14T03:00:59;6.27;;;5.07;;
8526;SDS011;4301;48.362;8.478;2023-06-14T03:03:28;6.50;;;4.83;;
8526;SDS011;4301;48.362;8.478;2023-06-14T03:05:55;5.77;;;5.20;;
8526;SDS011;4301;48.362;8.478;2023-06-14T03:08:23;5.33;;;4.83;;
8526;SDS011;4301;48.362;8.478;2023-06-14T03:10:52;6.37;;;5.37;;
8526;SDS011;4301;48.362;8.478;2023-06-14T03:13:21;5.50;;;5.00;;
8526;SDS011;4301;48.362;8.478;2023-06-14T03:15:48;6.13;;;4.73;;
8526;SDS011;4301;48.362;8.478;2023-06-14T03:18:16;8.27;;;5.47;;
8526;SDS011;4301;48.362;8.478;2023-06-14T03:20:44;5.80;;;5.20;;
8526;SDS011;4301;48.362;8.478;2023-06-14T03:23:12;5.50;;;5.00;;
8526;SDS011;4301;48.362;8.478;2023-06-14T03:25:40;6.90;;;5.30;;
8526;SDS011;4301;48.362;8.478;2023-06-14T03:28:07;5.73;;;5.00;;
8526;SDS011;4301;48.362;8.478;2023-06-14T03:30:35;7.03;;;5.20;;
8526;SDS011;4301;48.362;8.478;2023-06-14T03:33:02;5.53;;;5.03;;
8526;SDS011;4301;48.362;8.478;2023-06-14T03:35:29;5.90;;;5.37;;
8526;SDS011;4301;48.362;8.478;2023-06-14T03:37:56;5.77;;;5.17;;
8526;SDS011;4301;48.362;8.478;2023-06-14T03:40:23;6.70;;;4.60;;
8526;SDS011;4301;48.362;8.478;2023-06-14T03:42:53;6.40;;;5.80;;
8526;SDS011;4301;48.362;8.478;2023-06-14T03:45:20;6.40;;;5.50;;
8526;SDS011;4301;48.362;8.478;2023-06-14T03:47:47;7.90;;;5.20;;
8526;SDS011;4301;48.362;8.478;2023-06-14T03:50:15;7.43;;;5.63;;
8526;SDS011;4301;48.362;8.478;2023-06-14T03:52:43;7.50;;;5.87;;
8526;SDS011;4301;48.362;8.478;2023-06-14T03:55:10;6.00;;;5.40;;
8526;SDS011;4301;48.362;8.478;2023-06-14T03:57:38;5.77;;;5.17;;
8526;SDS011;4301;48.362;8.478;2023-06-14T04:00:07;6.03;;;5.37;;
8526;SDS011;4301;48.362;8.478;2023-06-14T04:02:36;6.80;;;5.70;;
8526;SDS011;4301;48.362;8.478;2023-06-14T04:05:03;5.60;;;5.10;;
8526;SDS011;4301;48.362;8.478;2023-06-14T04:07:33;6.13;;;5.57;;
8526;SDS011;4301;48.362;8.478;2023-06-14T04:10:05;5.50;;;4.90;;
8526;SDS011;4301;48.362;8.478;2023-06-14T04:12:33;6.13;;;5.37;;
8526;SDS011;4301;48.362;8.478;2023-06-14T04:15:00;7.40;;;5.37;;
8526;SDS011;4301;48.362;8.478;2023-06-14T04:17:29;6.30;;;5.03;;
8526;SDS011;4301;48.362;8.478;2023-06-14T04:19:57;5.57;;;5.03;;
8526;SDS011;4301;48.362;8.478;2023-06-14T04:22:25;5.93;;;5.37;;
8526;SDS011;4301;48.362;8.478;2023-06-14T04:24:53;6.27;;;5.67;;
8526;SDS011;4301;48.362;8.478;2023-06-14T04:27:21;5.63;;;5.13;;
8526;SDS011;4301;48.362;8.478;2023-06-14T04:29:50;6.43;;;5.57;;
8526;SDS011;4301;48.362;8.478;2023-06-14T04:32:23;5.47;;;4.87;;
8526;SDS011;4301;48.362;8.478;2023-06-14T04:34:53;7.43;;;5.40;;
8526;SDS011;4301;48.362;8.478;2023-06-14T04:37:20;6.00;;;5.33;;
8526;SDS011;4301;48.362;8.478;2023-06-14T04:39:47;6.00;;;5.40;;
8526;SDS011;4301;48.362;8.478;2023-06-14T04:42:15;6.63;;;5.20;;
8526;SDS011;4301;48.362;8.478;2023-06-14T04:44:45;6.13;;;5.33;;
8526;SDS011;4301;48.362;8.478;2023-06-14T04:47:13;6.07;;;5.20;;
8526;SDS011;4301;48.362;8.478;2023-06-14T04:49:41;6.70;;;5.40;;
8526;SDS011;4301;48.362;8.478;2023-06-14T04:52:09;6.53;;;5.30;;
8526;SDS011;4301;48.362;8.478;2023-06-14T04:54:38;5.80;;;5.23;;
8526;SDS011;4301;48.362;8.478;2023-06-14T04:57:07;6.53;;;5.43;;
8526;SDS011;4301;48.362;8.478;2023-06-14T04:59:34;8.07;;;5.23;;
8526;SDS011;4301;48.362;8.478;2023-06-14T05:02:01;6.17;;;5.53;;
8526;SDS011;4301;48.362;8.478;2023-06-14T05:04:28;5.90;;;5.30;;
8526;SDS011;4301;48.362;8.478;2023-06-14T05:06:55;7.70;;;5.20;;
8526;SDS011;4301;48.362;8.478;2023-06-14T05:09:24;10.47;;;5.57;;
8526;SDS011;4301;48.362;8.478;2023-06-14T05:11:51;6.10;;;5.50;;
8526;SDS011;4301;48.362;8.478;2023-06-14T05:14:17;7.37;;;5.60;;
8526;SDS011;4301;48.362;8.478;2023-06-14T05:16:45;7.57;;;5.40;;
8526;SDS011;4301;48.362;8.478;2023-06-14T05:19:13;8.83;;;5.73;;
8526;SDS011;4301;48.362;8.478;2023-06-14T05:21:43;10.40;;;6.07;;
8526;SDS011;4301;48.362;8.478;2023-06-14T05:24:10;7.13;;;5.30;;
8526;SDS011;4301;48.362;8.478;2023-06-14T05:26:38;6.50;;;5.20;;
8526;SDS011;4301;48.362;8.478;2023-06-14T05:29:05;9.17;;;5.50;;
8526;SDS011;4301;48.362;8.478;2023-06-14T05:31:33;6.65;;;5.50;;
8526;SDS011;4301;48.362;8.478;2023-06-14T05:34:00;6.77;;;5.43;;
8526;SDS011;4301;48.362;8.478;2023-06-14T05:36:27;5.80;;;5.10;;
8526;SDS011;4301;48.362;8.478;2023-06-14T05:38:54;6.50;;;5.30;;
8526;SDS011;4301;48.362;8.478;2023-06-14T05:41:23;6.10;;;5.50;;
8526;SDS011;4301;48.362;8.478;2023-06-14T05:43:52;6.20;;;5.60;;
8526;SDS011;4301;48.362;8.478;2023-06-14T05:46:20;7.07;;;4.93;;
8526;SDS011;4301;48.362;8.478;2023-06-14T05:48:50;5.50;;;5.00;;
8526;SDS011;4301;48.362;8.478;2023-06-14T05:51:17;5.37;;;4.87;;
8526;SDS011;4301;48.362;8.478;2023-06-14T05:53:44;5.77;;;5.17;;
8526;SDS011;4301;48.362;8.478;2023-06-14T05:56:12;5.47;;;4.97;;
8526;SDS011;4301;48.362;8.478;2023-06-14T05:58:39;6.03;;;5.17;;
8526;SDS011;4301;48.362;8.478;2023-06-14T06:01:07;8.73;;;5.03;;
8526;SDS011;4301;48.362;8.478;2023-06-14T06:03:34;5.63;;;5.13;;
8526;SDS011;4301;48.362;8.478;2023-06-14T06:06:01;5.53;;;5.03;;
8526;SDS011;4301;48.362;8.478;2023-06-14T06:08:28;5.60;;;5.10;;
8526;SDS011;4301;48.362;8.478;2023-06-14T06:10:56;6.17;;;5.13;;
8526;SDS011;4301;48.362;8.478;2023-06-14T06:13:23;5.47;;;4.93;;
8526;SDS011;4301;48.362;8.478;2023-06-14T06:15:50;6.93;;;5.00;;
8526;SDS011;4301;48.362;8.478;2023-06-14T06:18:18;5.40;;;4.90;;
8526;SDS011;4301;48.362;8.478;2023-06-14T06:20:45;5.73;;;5.17;;
8526;SDS011;4301;48.362;8.478;2023-06-14T06:23:12;8.33;;;5.07;;
8526;SDS011;4301;48.362;8.478;2023-06-14T06:25:39;6.17;;;5.03;;
8526;SDS011;4301;48.362;8.478;2023-06-14T06:28:07;5.77;;;5.03;;
8526;SDS011;4301;48.362;8.478;2023-06-14T06:30:34;5.80;;;5.20;;
8526;SDS011;4301;48.362;8.478;2023-06-14T06:33:02;6.40;;;4.87;;
8526;SDS011;4301;48.362;8.478;2023-06-14T06:35:30;5.97;;;5.33;;
8526;SDS011;4301;48.362;8.478;2023-06-14T06:37:58;5.80;;;4.43;;
8526;SDS011;4301;48.362;8.478;2023-06-14T06:40:26;5.97;;;4.57;;
8526;SDS011;4301;48.362;8.478;2023-06-14T06:42:53;5.60;;;4.83;;
8526;SDS011;4301;48.362;8.478;2023-06-14T06:45:20;5.27;;;4.63;;
8526;SDS011;4301;48.362;8.478;2023-06-14T06:47:48;4.87;;;4.13;;
8526;SDS011;4301;48.362;8.478;2023-06-14T06:50:15;3.90;;;3.60;;
8526;SDS011;4301;48.362;8.478;2023-06-14T06:52:43;4.40;;;4.00;;
8526;SDS011;4301;48.362;8.478;2023-06-14T06:55:11;4.50;;;4.10;;
8526;SDS011;4301;48.362;8.478;2023-06-14T06:57:38;4.87;;;4.20;;
8526;SDS011;4301;48.362;8.478;2023-06-14T07:00:05;4.73;;;4.00;;
8526;SDS011;4301;48.362;8.478;2023-06-14T07:02:34;4.90;;;3.80;;
8526;SDS011;4301;48.362;8.478;2023-06-14T07:05:02;4.50;;;4.10;;
8526;SDS011;4301;48.362;8.478;2023-06-14T07:07:29;4.63;;;4.10;;
8526;SDS011;4301;48.362;8.478;2023-06-14T07:09:57;4.37;;;3.97;;
8526;SDS011;4301;48.362;8.478;2023-06-14T07:12:25;4.87;;;4.03;;
8526;SDS011;4301;48.362;8.478;2023-06-14T07:14:52;4.47;;;4.07;;
8526;SDS011;4301;48.362;8.478;2023-06-14T07:17:19;6.13;;;4.00;;
8526;SDS011;4301;48.362;8.478;2023-06-14T07:19:46;4.07;;;3.77;;
8526;SDS011;4301;48.362;8.478;2023-06-14T07:22:13;4.40;;;4.00;;
8526;SDS011;4301;48.362;8.478;2023-06-14T07:24:39;4.97;;;3.97;;
8526;SDS011;4301;48.362;8.478;2023-06-14T07:27:08;5.53;;;3.90;;
8526;SDS011;4301;48.362;8.478;2023-06-14T07:29:38;7.93;;;4.07;;
8526;SDS011;4301;48.362;8.478;2023-06-14T07:32:05;4.23;;;3.57;;
8526;SDS011;4301;48.362;8.478;2023-06-14T07:34:33;5.50;;;3.87;;
8526;SDS011;4301;48.362;8.478;2023-06-14T07:37:00;7.03;;;4.10;;
8526;SDS011;4301;48.362;8.478;2023-06-14T07:39:27;4.10;;;3.70;;
8526;SDS011;4301;48.362;8.478;2023-06-14T07:41:54;4.97;;;3.73;;
8526;SDS011;4301;48.362;8.478;2023-06-14T07:44:22;4.75;;;3.92;;
8526;SDS011;4301;48.362;8.478;2023-06-14T07:46:49;6.32;;;4.10;;
8526;SDS011;4301;48.362;8.478;2023-06-14T07:49:16;4.37;;;3.93;;
8526;SDS011;4301;48.362;8.478;2023-06-14T07:51:43;4.18;;;3.88;;
8526;SDS011;4301;48.362;8.478;2023-06-14T07:54:11;5.32;;;3.67;;
8526;SDS011;4301;48.362;8.478;2023-06-14T07:56:39;3.72;;;3.42;;
8526;SDS011;4301;48.362;8.478;2023-06-14T07:59:05;3.65;;;3.35;;
8526;SDS011;4301;48.362;8.478;2023-06-14T08:01:34;3.72;;;3.38;;
8526;SDS011;4301;48.362;8.478;2023-06-14T08:04:01;4.10;;;3.13;;
8526;SDS011;4301;48.362;8.478;2023-06-14T08:06:28;3.78;;;3.38;;
8526;SDS011;4301;48.362;8.478;2023-06-14T08:08:55;3.55;;;3.25;;
8526;SDS011;4301;48.362;8.478;2023-06-14T08:11:22;3.67;;;3.38;;
8526;SDS011;4301;48.362;8.478;2023-06-14T08:13:50;3.70;;;3.40;;
8526;SDS011;4301;48.362;8.478;2023-06-14T08:16:17;4.70;;;3.70;;
8526;SDS011;4301;48.362;8.478;2023-06-14T08:18:45;3.53;;;3.30;;
8526;SDS011;4301;48.362;8.478;2023-06-14T08:21:12;4.43;;;4.00;;
8526;SDS011;4301;48.362;8.478;2023-06-14T08:23:39;3.65;;;3.35;;
8526;SDS011;4301;48.362;8.478;2023-06-14T08:26:08;3.45;;;3.22;;
8526;SDS011;4301;48.362;8.478;2023-06-14T08:28:35;5.40;;;3.70;;
8526;SDS011;4301;48.362;8.478;2023-06-14T08:31:02;3.95;;;3.60;;
8526;SDS011;4301;48.362;8.478;2023-06-14T08:33:29;3.63;;;3.33;;
8526;SDS011;4301;48.362;8.478;2023-06-14T08:35:59;3.90;;;3.45;;
8526;SDS011;4301;48.362;8.478;2023-06-14T08:38:26;4.43;;;3.85;;
8526;SDS011;4301;48.362;8.478;2023-06-14T08:40:53;7.72;;;3.80;;
8526;SDS011;4301;48.362;8.478;2023-06-14T08:43:24;3.83;;;3.53;;
8526;SDS011;4301;48.362;8.478;2023-06-14T08:45:52;4.43;;;4.03;;
8526;SDS011;4301;48.362;8.478;2023-06-14T08:48:24;4.82;;;3.63;;
8526;SDS011;4301;48.362;8.478;2023-06-14T08:50:53;4.40;;;4.10;;
8526;SDS011;4301;48.362;8.478;2023-06-14T08:53:28;5.75;;;3.80;;
8526;SDS011;4301;48.362;8.478;2023-06-14T08:55:57;9.40;;;3.90;;
8526;SDS011;4301;48.362;8.478;2023-06-14T08:58:26;6.00;;;3.70;;
8526;SDS011;4301;48.362;8.478;2023-06-14T09:00:54;4.85;;;3.90;;
8526;SDS011;4301;48.362;8.478;2023-06-14T09:03:22;5.68;;;4.43;;
8526;SDS011;4301;48.362;8.478;2023-06-14T09:05:54;4.53;;;4.05;;
8526;SDS011;4301;48.362;8.478;2023-06-14T09:08:24;6.30;;;4.45;;
8526;SDS011;4301;48.362;8.478;2023-06-14T09:10:52;4.82;;;4.20;;
8526;SDS011;4301;48.362;8.478;2023-06-14T09:13:20;5.82;;;4.55;;
8526;SDS011;4301;48.362;8.478;2023-06-14T09:15:47;5.95;;;4.75;;
8526;SDS011;4301;48.362;8.478;2023-06-14T09:18:14;4.60;;;4.20;;
8526;SDS011;4301;48.362;8.478;2023-06-14T09:20:41;5.32;;;4.43;;
8526;SDS011;4301;48.362;8.478;2023-06-14T09:23:09;4.40;;;3.97;;
8526;SDS011;4301;48.362;8.478;2023-06-14T09:25:45;6.90;;;4.43;;
8526;SDS011;4301;48.362;8.478;2023-06-14T09:28:13;4.75;;;4.35;;
8526;SDS011;4301;48.362;8.478;2023-06-14T09:30:40;4.70;;;4.30;;
8526;SDS011;4301;48.362;8.478;2023-06-14T09:33:07;5.10;;;4.22;;
8526;SDS011;4301;48.362;8.478;2023-06-14T09:35:34;5.13;;;4.68;;
8526;SDS011;4301;48.362;8.478;2023-06-14T09:38:02;7.50;;;4.90;;
8526;SDS011;4301;48.362;8.478;2023-06-14T09:40:29;4.72;;;4.18;;
8526;SDS011;4301;48.362;8.478;2023-06-14T09:43:02;5.10;;;4.20;;
8526;SDS011;4301;48.362;8.478;2023-06-14T09:45:34;5.32;;;4.63;;
8526;SDS011;4301;48.362;8.478;2023-06-14T09:48:01;4.60;;;4.20;;
8526;SDS011;4301;48.362;8.478;2023-06-14T09:50:30;4.68;;;4.25;;
8526;SDS011;4301;48.362;8.478;2023-06-14T09:52:57;4.57;;;4.05;;
8526;SDS011;4301;48.362;8.478;2023-06-14T09:55:30;7.32;;;4.53;;
8526;SDS011;4301;48.362;8.478;2023-06-14T09:58:00;8.30;;;4.40;;
8526;SDS011;4301;48.362;8.478;2023-06-14T10:00:30;6.90;;;4.25;;
8526;SDS011;4301;48.362;8.478;2023-06-14T10:03:00;7.57;;;4.25;;
8526;SDS011;4301;48.362;8.478;2023-06-14T10:05:30;4.70;;;4.30;;
8526;SDS011;4301;48.362;8.478;2023-06-14T10:07:59;4.85;;;4.38;;
8526;SDS011;4301;48.362;8.478;2023-06-14T10:10:30;4.55;;;4.20;;
8526;SDS011;4301;48.362;8.478;2023-06-14T10:12:57;6.07;;;4.82;;
8526;SDS011;4301;48.362;8.478;2023-06-14T10:15:28;6.63;;;4.30;;
8526;SDS011;4301;48.362;8.478;2023-06-14T10:18:02;4.90;;;4.43;;
8526;SDS011;4301;48.362;8.478;2023-06-14T10:20:41;9.63;;;3.85;;
8526;SDS011;4301;48.362;8.478;2023-06-14T10:23:16;5.15;;;4.53;;
8526;SDS011;4301;48.362;8.478;2023-06-14T10:25:49;7.10;;;4.78;;
8526;SDS011;4301;48.362;8.478;2023-06-14T10:28:17;8.43;;;4.50;;
8526;SDS011;4301;48.362;8.478;2023-06-14T10:31:02;6.90;;;4.32;;
8526;SDS011;4301;48.362;8.478;2023-06-14T10:33:31;5.00;;;4.07;;
8526;SDS011;4301;48.362;8.478;2023-06-14T10:36:09;5.22;;;3.92;;
8526;SDS011;4301;48.362;8.478;2023-06-14T10:38:56;4.85;;;4.45;;
8526;SDS011;4301;48.362;8.478;2023-06-14T10:41:24;4.78;;;4.38;;
8526;SDS011;4301;48.362;8.478;2023-06-14T10:44:02;6.10;;;4.22;;
8526;SDS011;4301;48.362;8.478;2023-06-14T10:46:58;5.15;;;4.35;;
8526;SDS011;4301;48.362;8.478;2023-06-14T10:49:40;5.95;;;4.80;;
8526;SDS011;4301;48.362;8.478;2023-06-14T10:52:09;5.13;;;4.32;;
8526;SDS011;4301;48.362;8.478;2023-06-14T10:55:05;5.75;;;4.28;;
8526;SDS011;4301;48.362;8.478;2023-06-14T10:57:36;7.70;;;4.53;;
8526;SDS011;4301;48.362;8.478;2023-06-14T11:00:05;5.68;;;4.22;;
8526;SDS011;4301;48.362;8.478;2023-06-14T11:02:46;5.35;;;4.47;;
8526;SDS011;4301;48.362;8.478;2023-06-14T11:05:23;4.93;;;4.40;;
8526;SDS011;4301;48.362;8.478;2023-06-14T11:07:55;6.50;;;4.38;;
8526;SDS011;4301;48.362;8.478;2023-06-14T11:10:36;5.53;;;3.97;;
8526;SDS011;4301;48.362;8.478;2023-06-14T11:13:04;4.68;;;4.28;;
8526;SDS011;4301;48.362;8.478;2023-06-14T11:15:33;5.15;;;4.55;;
8526;SDS011;4301;48.362;8.478;2023-06-14T11:18:01;4.32;;;4.03;;
8526;SDS011;4301;48.362;8.478;2023-06-14T11:20:32;8.27;;;4.68;;
8526;SDS011;4301;48.362;8.478;2023-06-14T11:23:00;5.05;;;4.07;;
8526;SDS011;4301;48.362;8.478;2023-06-14T11:25:28;4.93;;;3.85;;
8526;SDS011;4301;48.362;8.478;2023-06-14T11:27:55;4.60;;;4.20;;
8526;SDS011;4301;48.362;8.478;2023-06-14T11:30:23;5.15;;;4.50;;
8526;SDS011;4301;48.362;8.478;2023-06-14T11:32:50;5.93;;;4.40;;
8526;SDS011;4301;48.362;8.478;2023-06-14T11:35:19;5.68;;;4.85;;
8526;SDS011;4301;48.362;8.478;2023-06-14T11:37:50;4.88;;;4.47;;
8526;SDS011;4301;48.362;8.478;2023-06-14T11:40:20;5.70;;;4.38;;
8526;SDS011;4301;48.362;8.478;2023-06-14T11:42:51;6.60;;;4.88;;
8526;SDS011;4301;48.362;8.478;2023-06-14T11:45:24;4.70;;;4.30;;
8526;SDS011;4301;48.362;8.478;2023-06-14T11:47:53;5.68;;;5.00;;
8526;SDS011;4301;48.362;8.478;2023-06-14T11:50:21;4.65;;;4.25;;
8526;SDS011;4301;48.362;8.478;2023-06-14T11:52:53;7.75;;;4.50;;
8526;SDS011;4301;48.362;8.478;2023-06-14T11:55:21;4.88;;;3.95;;
8526;SDS011;4301;48.362;8.478;2023-06-14T11:57:48;6.55;;;4.63;;
8526;SDS011;4301;48.362;8.478;2023-06-14T12:00:15;5.72;;;5.03;;
8526;SDS011;4301;48.362;8.478;2023-06-14T12:02:43;4.88;;;4.47;;
8526;SDS011;4301;48.362;8.478;2023-06-14T12:05:20;5.05;;;4.40;;
8526;SDS011;4301;48.362;8.478;2023-06-14T12:07:47;8.80;;;4.55;;
8526;SDS011;4301;48.362;8.478;2023-06-14T12:10:16;4.75;;;4.30;;
8526;SDS011;4301;48.362;8.478;2023-06-14T12:12:43;7.20;;;4.38;;
8526;SDS011;4301;48.362;8.478;2023-06-14T12:15:10;4.97;;;4.47;;
8526;SDS011;4301;48.362;8.478;2023-06-14T12:17:38;4.82;;;4.30;;
8526;SDS011;4301;48.362;8.478;2023-06-14T12:20:08;5.18;;;4.40;;
8526;SDS011;4301;48.362;8.478;2023-06-14T12:22:39;4.95;;;4.45;;
8526;SDS011;4301;48.362;8.478;2023-06-14T12:25:24;4.57;;;4.22;;
8526;SDS011;4301;48.362;8.478;2023-06-14T12:27:56;8.88;;;4.35;;
8526;SDS011;4301;48.362;8.478;2023-06-14T12:30:23;5.15;;;4.68;;
8526;SDS011;4301;48.362;8.478;2023-06-14T12:32:50;4.93;;;4.53;;
8526;SDS011;4301;48.362;8.478;2023-06-14T12:35:17;4.53;;;4.10;;
8526;SDS011;4301;48.362;8.478;2023-06-14T12:37:45;6.13;;;4.22;;
8526;SDS011;4301;48.362;8.478;2023-06-14T12:40:12;4.78;;;4.35;;
8526;SDS011;4301;48.362;8.478;2023-06-14T12:42:40;6.97;;;4.10;;
8526;SDS011;4301;48.362;8.478;2023-06-14T12:45:08;4.53;;;4.10;;
8526;SDS011;4301;48.362;8.478;2023-06-14T12:47:36;5.00;;;3.92;;
8526;SDS011;4301;48.362;8.478;2023-06-14T12:50:03;8.93;;;4.30;;
8526;SDS011;4301;48.362;8.478;2023-06-14T12:52:31;5.85;;;4.55;;
8526;SDS011;4301;48.362;8.478;2023-06-14T12:55:01;5.03;;;4.50;;
8526;SDS011;4301;48.362;8.478;2023-06-14T12:57:28;4.43;;;4.00;;
8526;SDS011;4301;48.362;8.478;2023-06-14T12:59:56;6.10;;;4.38;;
8526;SDS011;4301;48.362;8.478;2023-06-14T13:02:23;5.05;;;4.05;;
8526;SDS011;4301;48.362;8.478;2023-06-14T13:04:50;5.10;;;4.20;;
8526;SDS011;4301;48.362;8.478;2023-06-14T13:07:18;4.57;;;4.18;;
8526;SDS011;4301;48.362;8.478;2023-06-14T13:09:45;4.55;;;4.25;;
8526;SDS011;4301;48.362;8.478;2023-06-14T13:12:12;4.75;;;4.20;;
8526;SDS011;4301;48.362;8.478;2023-06-14T13:14:39;4.43;;;4.03;;
8526;SDS011;4301;48.362;8.478;2023-06-14T13:17:09;7.40;;;4.00;;
8526;SDS011;4301;48.362;8.478;2023-06-14T13:19:36;4.00;;;3.63;;
8526;SDS011;4301;48.362;8.478;2023-06-14T13:22:03;5.88;;;4.22;;
8526;SDS011;4301;48.362;8.478;2023-06-14T13:24:30;4.93;;;3.95;;
8526;SDS011;4301;48.362;8.478;2023-06-14T13:26:58;4.22;;;3.92;;
8526;SDS011;4301;48.362;8.478;2023-06-14T13:29:25;4.60;;;4.20;;
8526;SDS011;4301;48.362;8.478;2023-06-14T13:31:53;5.10;;;4.50;;
8526;SDS011;4301;48.362;8.478;2023-06-14T13:34:22;4.80;;;4.30;;
8526;SDS011;4301;48.362;8.478;2023-06-14T13:36:49;7.53;;;4.20;;
8526;SDS011;4301;48.362;8.478;2023-06-14T13:39:16;5.30;;;4.45;;
8526;SDS011;4301;48.362;8.478;2023-06-14T13:41:44;7.63;;;4.47;;
8526;SDS011;4301;48.362;8.478;2023-06-14T13:44:11;4.07;;;3.67;;
8526;SDS011;4301;48.362;8.478;2023-06-14T13:46:39;4.72;;;4.28;;
8526;SDS011;4301;48.362;8.478;2023-06-14T13:49:07;4.30;;;3.90;;
8526;SDS011;4301;48.362;8.478;2023-06-14T13:51:36;4.13;;;3.83;;
8526;SDS011;4301;48.362;8.478;2023-06-14T13:54:03;4.95;;;4.30;;
8526;SDS011;4301;48.362;8.478;2023-06-14T13:56:31;4.93;;;4.53;;
8526;SDS011;4301;48.362;8.478;2023-06-14T13:58:58;4.38;;;4.03;;
8526;SDS011;4301;48.362;8.478;2023-06-14T14:01:26;5.90;;;4.00;;
8526;SDS011;4301;48.362;8.478;2023-06-14T14:03:54;6.40;;;4.13;;
8526;SDS011;4301;48.362;8.478;2023-06-14T14:06:21;4.32;;;3.65;;
8526;SDS011;4301;48.362;8.478;2023-06-14T14:08:50;5.13;;;4.25;;
8526;SDS011;4301;48.362;8.478;2023-06-14T14:11:17;4.68;;;4.28;;
8526;SDS011;4301;48.362;8.478;2023-06-14T14:13:45;5.00;;;4.10;;
8526;SDS011;4301;48.362;8.478;2023-06-14T14:16:12;5.30;;;4.18;;
8526;SDS011;4301;48.362;8.478;2023-06-14T14:18:40;4.40;;;4.00;;
8526;SDS011;4301;48.362;8.478;2023-06-14T14:21:07;4.30;;;3.90;;
8526;SDS011;4301;48.362;8.478;2023-06-14T14:23:34;4.30;;;4.00;;
8526;SDS011;4301;48.362;8.478;2023-06-14T14:26:03;4.63;;;3.80;;
8526;SDS011;4301;48.362;8.478;2023-06-14T14:28:30;4.85;;;4.45;;
8526;SDS011;4301;48.362;8.478;2023-06-14T14:30:58;4.60;;;4.20;;
8526;SDS011;4301;48.362;8.478;2023-06-14T14:33:25;4.28;;;3.97;;
8526;SDS011;4301;48.362;8.478;2023-06-14T14:35:52;5.30;;;4.32;;
8526;SDS011;4301;48.362;8.478;2023-06-14T14:38:20;4.72;;;3.95;;
8526;SDS011;4301;48.362;8.478;2023-06-14T14:40:47;4.85;;;4.13;;
8526;SDS011;4301;48.362;8.478;2023-06-14T14:43:16;4.40;;;4.00;;
8526;SDS011;4301;48.362;8.478;2023-06-14T14:45:43;5.53;;;3.85;;
8526;SDS011;4301;48.362;8.478;2023-06-14T14:48:10;4.93;;;3.83;;
8526;SDS011;4301;48.362;8.478;2023-06-14T14:50:38;7.07;;;3.92;;
8526;SDS011;4301;48.362;8.478;2023-06-14T14:53:05;4.80;;;4.38;;
8526;SDS011;4301;48.362;8.478;2023-06-14T14:55:32;7.55;;;4.07;;
8526;SDS011;4301;48.362;8.478;2023-06-14T14:58:02;5.45;;;3.90;;
8526;SDS011;4301;48.362;8.478;2023-06-14T15:00:32;5.03;;;4.07;;
8526;SDS011;4301;48.362;8.478;2023-06-14T15:03:00;4.55;;;4.05;;
8526;SDS011;4301;48.362;8.478;2023-06-14T15:05:27;4.65;;;4.10;;
8526;SDS011;4301;48.362;8.478;2023-06-14T15:07:54;5.93;;;3.95;;
8526;SDS011;4301;48.362;8.478;2023-06-14T15:10:21;4.32;;;3.92;;
8526;SDS011;4301;48.362;8.478;2023-06-14T15:12:49;5.70;;;3.78;;
8526;SDS011;4301;48.362;8.478;2023-06-14T15:15:16;9.35;;;4.10;;
8526;SDS011;4301;48.362;8.478;2023-06-14T15:17:45;4.50;;;4.10;;
8526;SDS011;4301;48.362;8.478;2023-06-14T15:20:12;5.95;;;3.97;;
8526;SDS011;4301;48.362;8.478;2023-06-14T15:22:40;5.18;;;4.15;;